Rockland, Maine
Current Conditions -  °F | °C
As of 4:15 AM on Wednesday 28 Jan 2015 (Local Time) from KRKD Reporting Station
Overcast Overcast  
Wind Chill:   Ceiling: 5000
Heat Index: 16°   Visibility: 9mi
Dew Point:   Wind: 8mph
Humidity: 73%   Direction: 360°N
Pressure: 29.62"   Gusts: 23mph
Location:  44.1°N, 69.11°W
Report Text: KRKD 280915Z AUTO 36007G20KT 320V020 9SM FEW023 OVC050 M09/M13 A2962 RMK AO1
Loading
Personal Weather Stations






























Interactive Weather Map New forecast layout! Learn more

10-Day Weather Forecast

Advertisements
Track Severe Weather on mobile